Flight Track Log - Related Links

Times and Time Zones

All times are in EST time to prevent confusion due to time zone crossing. See the UAL33 flight status page for this flight to view local times or setup timezone preferences in your user account.

Time Position Orientation Groundspeed Altitude Reporting Facility
EST Latitude Longitude Course Direction KTS MPH feet Rate Location/Type
Sun 04:44:00 AM 36.0215 140.8603 98° East  Level Estimated
Sun 04:45:00 AM 35.9263 141.0097 128° Southeast  Level FlightAware Approximate
Sun 04:46:00 AM 36.0113 141.1683 104° East  Level Estimated
Sun 04:47:00 AM 36.0962 141.3272 98° East  Level Estimated
Sun 04:48:00 AM 35.9896 141.4645 134° Southeast  Level FlightAware Approximate
Sun 04:49:00 AM 36.0741 141.6236 102° East  Level Estimated
Sun 04:50:00 AM 36.1584 141.7831 97° East  Level Estimated
Sun 04:51:00 AM 36.2426 141.9429 103° East  Level Estimated
Sun 04:52:00 AM 36.3265 142.1030 104° East  Level Estimated
Sun 04:53:00 AM 36.4101 142.2635 101° East  Level Estimated
Sun 04:54:00 AM 36.2900 142.3830 141° Southeast  Level FlightAware Approximate
Sun 04:55:00 AM 36.1698 142.5022 141° Southeast  Level FlightAware Approximate
Sun 04:56:00 AM 36.2531 142.6627 101° East  Level Estimated
Sun 04:57:00 AM 36.1371 142.7882 139° Southeast  Level FlightAware Approximate
Sun 04:58:00 AM 36.2201 142.9489 87° East  Level Estimated
Sun 04:59:00 AM 36.1121 143.0848 135° Southeast  Level FlightAware Approximate
Sun 05:00:00 AM 36.1948 143.2456 87° East  Level Estimated
Sun 05:01:00 AM 36.1247 143.4154 117° Southeast  Level FlightAware Approximate
Sun 05:02:00 AM 36.0544 143.5849 117° Southeast  Level FlightAware Approximate
Sun 05:03:00 AM 35.9838 143.7540 117° Southeast  Level FlightAware Approximate
Sun 05:04:00 AM 35.9130 143.9229 117° Southeast  Level FlightAware Approximate
Sun 05:05:00 AM 35.8420 144.0915 117° Southeast  Level FlightAware Approximate
Sun 05:06:00 AM 35.9237 144.2525 88° East  Level Estimated
Sun 05:07:00 AM 35.8638 144.4276 113° Southeast  Level FlightAware Approximate
Sun 05:08:00 AM 35.8037 144.6025 113° Southeast  Level FlightAware Approximate
Sun 05:09:00 AM 35.7433 144.7770 113° Southeast  Level FlightAware Approximate
Sun 05:10:00 AM 35.8243 144.9384 77° East  Level Estimated
Sun 05:11:00 AM 35.7963 145.1251 100° East  Level FlightAware Approximate
Sun 05:12:00 AM 35.7679 145.3116 101° East  Level FlightAware Approximate
Sun 05:13:00 AM 35.7393 145.4980 101° East  Level FlightAware Approximate
Sun 05:14:00 AM 35.7104 145.6843 101° East  Level FlightAware Approximate
Sun 05:15:00 AM 35.7904 145.8463 78° East  Level Estimated
Sun 05:16:00 AM 35.8031 146.0355 85° East  Level FlightAware Approximate
Sun 05:17:00 AM 35.8155 146.2247 85° East  Level FlightAware Approximate
Sun 05:18:00 AM 35.8276 146.4140 85° East  Level FlightAware Approximate
Sun 05:19:00 AM 35.8394 146.6034 86° East  Level FlightAware Approximate
Sun 05:20:00 AM 35.8509 146.7928 86° East  Level FlightAware Approximate
Sun 05:21:00 AM 35.8621 146.9822 86° East  Level FlightAware Approximate
Sun 05:22:00 AM 35.8730 147.1717 86° East  Level FlightAware Approximate
Sun 05:23:00 AM 35.8836 147.3613 86° East  Level FlightAware Approximate
Sun 05:24:00 AM 35.8939 147.5509 86° East  Level FlightAware Approximate
Sun 05:25:00 AM 35.9039 147.7406 86° East  Level FlightAware Approximate
Sun 05:26:00 AM 35.9136 147.9303 86° East  Level FlightAware Approximate
Sun 05:27:00 AM 35.9230 148.1200 86° East  Level FlightAware Approximate
Sun 05:28:00 AM 35.9321 148.3098 87° East  Level FlightAware Approximate
Sun 05:29:00 AM 35.9409 148.4997 87° East  Level FlightAware Approximate
Sun 05:30:00 AM 35.9494 148.6895 87° East  Level FlightAware Approximate
Sun 05:31:00 AM 36.0261 148.8546 80° East  Level Estimated
Sun 05:32:00 AM 36.0372 149.0444 86° East  Level FlightAware Approximate
Sun 05:33:00 AM 36.0480 149.2344 86° East  Level FlightAware Approximate
Sun 05:34:00 AM 36.0585 149.4244 86° East  Level FlightAware Approximate
Sun 05:35:00 AM 36.0687 149.6144 86° East  Level FlightAware Approximate
Sun 05:36:00 AM 36.1443 149.7804 81° East  Level Estimated
Sun 05:37:00 AM 36.1650 149.9694 82° East  Level FlightAware Approximate
Sun 05:38:00 AM 36.1853 150.1584 82° East  Level FlightAware Approximate
Sun 05:39:00 AM 36.2054 150.3476 82° East  Level FlightAware Approximate
Sun 05:40:00 AM 36.2251 150.5368 83° East  Level FlightAware Approximate
Sun 05:41:00 AM 36.2446 150.7262 83° East  Level FlightAware Approximate
Sun 05:42:00 AM 36.2637 150.9156 83° East  Level FlightAware Approximate
Sun 05:43:00 AM 36.2826 151.1051 83° East  Level FlightAware Approximate
Sun 05:44:00 AM 36.3011 151.2948 83° East  Level FlightAware Approximate
Sun 05:45:00 AM 36.3194 151.4845 83° East  Level FlightAware Approximate
Sun 05:46:00 AM 36.3374 151.6743 83° East  Level FlightAware Approximate
Sun 05:47:00 AM 36.3550 151.8642 83° East  Level FlightAware Approximate
Sun 05:48:00 AM 36.3724 152.0541 83° East  Level FlightAware Approximate
Sun 05:49:00 AM 36.3894 152.2442 84° East  Level FlightAware Approximate
Sun 05:50:00 AM 36.4062 152.4343 84° East  Level FlightAware Approximate
Sun 05:51:00 AM 36.4226 152.6245 84° East  Level FlightAware Approximate
Sun 05:52:00 AM 36.4388 152.8148 84° East  Level FlightAware Approximate
Sun 05:53:00 AM 36.4546 153.0052 84° East  Level FlightAware Approximate
Sun 05:54:00 AM 36.4703 153.1968 84° East  Level FlightAware Approximate
Sun 05:55:00 AM 36.4856 153.3884 84° East  Level FlightAware Approximate
Sun 05:56:00 AM 36.5006 153.5801 84° East  Level FlightAware Approximate
Sun 05:57:00 AM 36.5720 153.7511 83° East  Level Estimated
Sun 05:58:00 AM 36.5901 153.9426 83° East  Level FlightAware Approximate
Sun 05:59:00 AM 36.6078 154.1342 83° East  Level FlightAware Approximate
Sun 06:00:00 AM 36.6253 154.3259 83° East  Level FlightAware Approximate
Sun 06:01:00 AM 36.6424 154.5177 84° East  Level FlightAware Approximate
Sun 06:02:00 AM 36.6592 154.7095 84° East  Level FlightAware Approximate
Sun 06:03:00 AM 36.6758 154.9014 84° East  Level FlightAware Approximate
Sun 06:04:00 AM 36.6920 155.0935 84° East  Level FlightAware Approximate
Sun 06:05:00 AM 36.7079 155.2856 84° East  Level FlightAware Approximate
Sun 06:06:00 AM 36.7235 155.4778 84° East  Level FlightAware Approximate
Sun 06:07:00 AM 36.7388 155.6700 84° East  Level FlightAware Approximate
Sun 06:08:00 AM 36.7538 155.8623 84° East  Level FlightAware Approximate
Sun 06:09:00 AM 36.7684 156.0547 85° East  Level FlightAware Approximate
Sun 06:10:00 AM 36.7828 156.2472 85° East  Level FlightAware Approximate
Sun 06:11:00 AM 36.7968 156.4398 85° East  Level FlightAware Approximate
Sun 06:12:00 AM 36.8106 156.6324 85° East  Level FlightAware Approximate
Sun 06:13:00 AM 36.8240 156.8251 85° East  Level FlightAware Approximate
Sun 06:14:00 AM 36.8371 157.0179 85° East  Level FlightAware Approximate
Sun 06:15:00 AM 36.8499 157.2107 85° East  Level FlightAware Approximate
Sun 06:16:00 AM 36.8624 157.4035 85° East  Level FlightAware Approximate
Sun 06:17:00 AM 36.8746 157.5965 85° East  Level FlightAware Approximate
Sun 06:18:00 AM 36.8865 157.7895 86° East  Level FlightAware Approximate
Sun 06:19:00 AM 36.8981 157.9826 86° East  Level FlightAware Approximate
Sun 06:20:00 AM 36.9093 158.1757 86° East  Level FlightAware Approximate
Sun 06:21:00 AM 36.9202 158.3689 86° East  Level FlightAware Approximate
Sun 06:22:00 AM 36.9309 158.5621 86° East  Level FlightAware Approximate
Sun 06:23:00 AM 36.9412 158.7554 86° East  Level FlightAware Approximate
Sun 06:24:00 AM 37.0065 158.9311 73° East  Level Estimated
Sun 06:25:00 AM 37.0461 159.1186 75° East  Level FlightAware Approximate
Sun 06:26:00 AM 37.0854 159.3063 75° East  Level FlightAware Approximate
Sun 06:27:00 AM 37.1244 159.4942 75° East  Level FlightAware Approximate
Sun 06:28:00 AM 37.1630 159.6823 75° East  Level FlightAware Approximate
Sun 06:29:00 AM 37.2014 159.8706 76° East  Level FlightAware Approximate
Sun 06:30:00 AM 37.2395 160.0591 76° East  Level FlightAware Approximate
Sun 06:31:00 AM 37.2773 160.2477 76° East  Level FlightAware Approximate
Sun 06:32:00 AM 37.3148 160.4366 76° East  Level FlightAware Approximate
Sun 06:33:00 AM 37.3520 160.6256 76° East  Level FlightAware Approximate
Sun 06:34:00 AM 37.3889 160.8148 76° East  Level FlightAware Approximate
Sun 06:35:00 AM 37.4254 161.0043 76° East  Level FlightAware Approximate
Sun 06:36:00 AM 37.4617 161.1939 76° East  Level FlightAware Approximate
Sun 06:37:00 AM 37.4977 161.3836 77° East  Level FlightAware Approximate
Sun 06:38:00 AM 37.5334 161.5736 77° East  Level FlightAware Approximate
Sun 06:39:00 AM 37.5687 161.7637 77° East  Level FlightAware Approximate
Sun 06:40:00 AM 37.6038 161.9541 77° East  Level FlightAware Approximate
Sun 06:41:00 AM 37.6385 162.1446 77° East  Level FlightAware Approximate
Sun 06:42:00 AM 37.6730 162.3352 77° East  Level FlightAware Approximate
Sun 06:43:00 AM 37.7071 162.5261 77° East  Level FlightAware Approximate
Sun 06:44:00 AM 37.7410 162.7171 77° East  Level FlightAware Approximate
Sun 06:45:00 AM 37.7745 162.9083 77° East  Level FlightAware Approximate
Sun 06:46:00 AM 37.8077 163.0997 78° East  Level FlightAware Approximate
Sun 06:47:00 AM 37.8406 163.2912 78° East  Level FlightAware Approximate
Sun 06:48:00 AM 37.8732 163.4830 78° East  Level FlightAware Approximate
Sun 06:48:44 AM 38.6167 167.6500 77° East 687 791 39,000  Level Oakland Oceanic (ODAPS)
Sun 06:58:55 AM 39.0000 170.0000 72° East 661 761 39,000  Level Oakland Oceanic (ODAPS)
Sun 07:02:36 AM 39.2167 170.8833 73° East 645 742 39,000  Level Oakland Oceanic (ODAPS)
Sun 07:16:29 AM 39.9167 173.9667 75° East 641 738 39,000  Level Oakland Oceanic (ODAPS)
Sun 07:30:21 AM 40.5000 177.0167 77° East 619 712 39,000  Level Oakland Oceanic (ODAPS)
Sun 07:44:06 AM 41.0000 180.0000 79° East 603 694 39,000  Level Oakland Oceanic (ODAPS)
Sun 07:44:17 AM 41.0000 -179.9667 79° East 595 685 39,000 71 Level Oakland Oceanic (ODAPS)
Sun 07:58:08 AM 41.4000 -177.0000 81° East 591 680 40,000 36 Climbing Oakland Oceanic (ODAPS)
Sun 08:11:56 AM 41.7000 -174.0333 83° East 578 665 40,000  Level Oakland Oceanic (ODAPS)
Sun 08:25:48 AM 41.9333 -171.1167 85° East 574 661 40,000  Level Oakland Oceanic (ODAPS)
Sun 08:31:07 AM 42.0000 -170.0000 87° East 567 652 40,000  Level Oakland Oceanic (ODAPS)
Sun 08:39:40 AM 42.0667 -168.2000 88° East 558 642 40,000  Level Oakland Oceanic (ODAPS)
Sun 08:53:32 AM 42.1000 -165.3500 90° East 544 626 40,000  Level Oakland Oceanic (ODAPS)
Sun 09:07:24 AM 42.0833 -162.5833 92° East 536 617 40,000  Level Oakland Oceanic (ODAPS)
Sun 09:20:40 AM 42.0000 -160.0000 87° East 525 604 40,000  Level Oakland Oceanic (ODAPS)
Sun 09:21:00 AM 42.0082 -159.8081 87° East 536 617 40,000  Level FlightAware Transoceanic
Sun 09:21:17 AM 42.0000 -159.8833 87° East 520 598 40,000  Level Oakland Oceanic (ODAPS)
Sun 09:35:09 AM 42.0833 -157.2000 88° East 521 600 40,000  Level Oakland Oceanic (ODAPS)
Sun 09:49:01 AM 42.1000 -154.5333 90° East 520 598 40,000 22 Level Oakland Oceanic (ODAPS)
Sun 10:02:53 AM 42.0667 -151.8500 92° East 519 597 40,600 42 Climbing Oakland Oceanic (ODAPS)
Sun 10:12:34 AM 42.0000 -150.0000 94° East 509 586 41,000 30 Climbing Oakland Oceanic (ODAPS)
Sun 10:16:07 AM 41.9667 -149.3167 95° East 509 586 41,000  Level Oakland Oceanic (ODAPS)
Sun 10:16:45 AM 41.9500 -149.2000 95° East 503 579 41,000  Level Oakland Oceanic (ODAPS)
Sun 10:30:37 AM 41.7667 -146.6000 97° East 510 587 41,000  Level Oakland Oceanic (ODAPS)
Sun 10:44:28 AM 41.5167 -144.0167 98° East 509 586 41,000  Level Oakland Oceanic (ODAPS)
Sun 10:58:20 AM 41.2000 -141.4500 100° East 501 577 41,000  Level Oakland Oceanic (ODAPS)
Sun 11:06:31 AM 41.0000 -140.0000 101° East 501 577 41,000  Level Oakland Oceanic (ODAPS)
Sun 11:12:14 AM 40.8333 -138.9667 102° East 503 579 41,000  Level Oakland Oceanic (ODAPS)
Sun 11:26:04 AM 40.4167 -136.5000 104° East 502 578 41,000  Level Oakland Oceanic (ODAPS)
Sun 11:39:56 AM 39.9333 -134.0333 105° East 505 581 41,000  Level Oakland Oceanic (ODAPS)
Sun 11:53:49 AM 39.4000 -131.6333 107° East 501 577 41,000  Level Oakland Oceanic (ODAPS)
Sun 12:03:24 PM 39.0000 -130.0000 102° East 504 580 41,000  Level Oakland Oceanic (ODAPS)
Sun 12:07:37 PM 38.8667 -129.2500 102° East 506 582 41,000  Level Oakland Oceanic (ODAPS)
Sun 12:07:59 PM 38.8667 -129.1833 103° East 505 581 41,000  Level Oakland Oceanic (ODAPS)
Sun 12:17:47 PM 38.5533 -127.4953 111° Southeast 498 573 41,000  Level Oakland Center
Sun 12:18:00 PM 38.5361 -127.3622 104° East 505 581 41,000  Level FlightAware Transoceanic
Sun 12:18:48 PM 38.5233 -127.3217 102° East 500 575 41,000  Level Oakland Center
Sun 12:19:00 PM 38.5015 -127.1810 104° East 505 581 41,000 -97 Level FlightAware Transoceanic
Sun 12:19:50 PM 38.4933 -127.1500 103° East 500 575 40,900  Descending Oakland Center
Sun 12:20:00 PM 38.4667 -127.0000 111° Southeast 505 581 41,000 98 Climbing FlightAware Transoceanic
Sun 12:20:51 PM 38.4608 -126.9772 103° East 502 578 41,000  Level Oakland Center
Sun 12:21:00 PM 38.4158 -126.8324 111° Southeast 505 581 41,000  Level FlightAware Transoceanic
Sun 12:21:52 PM 38.4092 -126.8114 112° Southeast 503 579 41,000  Level Oakland Center
Sun 12:22:00 PM 38.3646 -126.6650 111° Southeast 505 581 41,000  Level FlightAware Transoceanic
Sun 12:22:53 PM 38.3500 -126.6478 115° Southeast 508 585 41,000  Level Oakland Center
Sun 12:23:00 PM 38.3132 -126.4979 111° Southeast 505 581 41,000 -98 Level FlightAware Transoceanic
Sun 12:23:54 PM 38.2792 -126.4550 115° Southeast 505 581 40,900 -52 Descending Oakland Center
Sun 12:24:55 PM 38.2200 -126.2950 115° Southeast 503 579 40,900  Level Oakland Center
Sun 12:25:56 PM 38.1689 -126.1533 115° Southeast 500 575 40,900  Level Oakland Center
Sun 12:26:57 PM 38.1097 -125.9950 115° Southeast 498 573 40,900  Level Oakland Center
Sun 12:27:58 PM 38.0517 -125.8369 115° Southeast 496 571 40,900 49 Level Oakland Center
Sun 12:29:00 PM 37.9800 -125.6478 116° Southeast 497 572 41,000 49 Climbing Oakland Center
Sun 12:30:01 PM 37.9203 -125.4900 116° Southeast 497 572 41,000  Level Oakland Center
Sun 12:31:02 PM 37.8606 -125.3317 115° Southeast 500 575 41,000  Level Oakland Center
Sun 12:32:03 PM 37.7992 -125.1739 116° Southeast 502 578 41,000  Level Oakland Center
Sun 12:33:04 PM 37.7411 -125.0167 115° Southeast 497 572 41,000 -49 Level Oakland Center
Sun 12:34:05 PM 37.6811 -124.8592 116° Southeast 499 574 40,900 -49 Descending Oakland Center
Sun 12:35:06 PM 37.6192 -124.7033 117° Southeast 499 574 40,900 49 Level Oakland Center
Sun 12:36:07 PM 37.5572 -124.5464 116° Southeast 501 577 41,000  Climbing Oakland Center
Sun 12:37:08 PM 37.4958 -124.3897 116° Southeast 502 578 40,900  Descending Oakland Center
Sun 12:38:09 PM 37.4353 -124.2331 116° Southeast 500 575 41,000  Climbing Oakland Center
Sun 12:39:10 PM 37.3617 -124.0439 116° Southeast 503 579 40,900  Descending Oakland Center
Sun 12:40:11 PM 37.2972 -123.8867 117° Southeast 506 582 41,000 -54 Climbing Oakland Center
Sun 12:46:37 PM 36.8907 -122.8770 117° Southeast 503 579 40,500 -235 Descending FlightAware ADS-B
Sun 12:47:25 PM 36.8402 -122.7540 117° Southeast 506 582 39,300 -1,189 Descending FlightAware ADS-B
Sun 12:48:28 PM 36.7733 -122.5920 117° Southeast 507 583 38,300 -1,033 Descending FlightAware ADS-B
Sun 12:49:27 PM 36.7113 -122.4420 117° Southeast 492 566 37,200 -1,213 Descending FlightAware ADS-B
Sun 12:49:57 PM 36.6798 -122.3660 117° Southeast 492 566 36,500 -1,292 Descending FlightAware ADS-B
Sun 12:50:32 PM 36.6431 -122.2790 118° Southeast 492 566 35,800 -1,280 Descending FlightAware ADS-B
Sun 12:52:27 PM 36.5238 -121.9940 117° Southeast 489 563 33,300 -1,299 Descending FlightAware ADS-B
Sun 12:53:09 PM 36.4791 -121.8890 118° Southeast 485 558 32,400 -1,234 Descending FlightAware ADS-B
Sun 12:56:35 PM 36.2661 -121.3900 118° Southeast 489 563 28,200 -1,177 Descending FlightAware ADS-B
Sun 12:57:29 PM 36.2181 -121.2822 118° Southeast 472 543 27,300 -1,043 Descending Oakland Center
Sun 12:58:30 PM 36.1575 -121.1411 118° Southeast 467 537 26,200 -1,082 Descending Oakland Center
Sun 12:59:31 PM 36.0981 -121.0025 118° Southeast 459 528 25,100 -590 Descending Oakland Center
Sun 01:00:32 PM 36.0383 -120.8658 118° Southeast 454 522 25,000 -98 Descending Oakland Center
Sun 01:01:33 PM 35.9786 -120.7294 118° Southeast 451 519 24,900  Descending Oakland Center
Sun 01:02:34 PM 35.9189 -120.5917 118° Southeast 453 521 25,000  Climbing Oakland Center
Sun 01:03:35 PM 35.8583 -120.4536 118° Southeast 455 524 24,900 -49 Descending Oakland Center
Sun 01:04:37 PM 35.7975 -120.3169 119° Southeast 453 521 24,900 49 Level Oakland Center
Sun 01:05:38 PM 35.7369 -120.1800 119° Southeast 453 521 25,000 49 Climbing Oakland Center
Sun 01:06:39 PM 35.6758 -120.0439 119° Southeast 451 519 25,000 -60 Level Oakland Center
Sun 01:07:18 PM 35.6114 -119.9464 129° Southeast 459 528 24,900 -59 Descending Los Angeles Center
Sun 01:08:20 PM 35.5036 -119.8544 145° Southeast 466 536 24,900 48 Level Los Angeles Center
Sun 01:09:22 PM 35.3972 -119.7619 145° Southeast 466 536 25,000 -97 Climbing Los Angeles Center
Sun 01:10:24 PM 35.3128 -119.6889 145° Southeast 464 534 24,700 -823 Descending Los Angeles Center
Sun 01:11:26 PM 35.1875 -119.5825 145° Southeast 458 527 23,300 -1,306 Descending Los Angeles Center
Sun 01:12:28 PM 35.0869 -119.4969 145° Southeast 447 514 22,000 -1,161 Descending Los Angeles Center
Sun 01:13:30 PM 34.9667 -119.3958 145° Southeast 440 506 20,900 -484 Descending Los Angeles Center
Sun 01:14:32 PM 34.8672 -119.3094 145° Southeast 438 504 21,000 48 Climbing Los Angeles Center
Sun 01:15:34 PM 34.7867 -119.2417 145° Southeast 440 506 21,000 -240 Level Los Angeles Center
Sun 01:16:37 PM 34.6661 -119.1408 145° Southeast 438 504 20,500 -1,165 Descending Los Angeles Center
Sun 01:22:26 PM 34.1090 -118.9036 145° Southeast 325 374 13,000 -1,178 Descending FlightAware ADS-B
Sun 01:26:38 PM 34.0191 -118.5512 107° East 270 311 8,700 -1,055 Descending FlightAware ADS-B
Sun 01:26:59 PM 34.0159 -118.5173 96° East 248 285 8,200 -1,031 Descending FlightAware ADS-B
Sun 01:27:42 PM 34.0114 -118.4676 96° East 216 249 7,600 -1,108 Descending FlightAware ADS-B
Sun 01:28:04 PM 34.0131 -118.4425 85° East 188 216 7,000 -2,066 Descending FlightAware ADS-B
Sun 01:28:43 PM 34.0201 -118.4013 78° East 207 238 5,500 -1,882 Descending FlightAware ADS-B
Sun 01:29:46 PM 34.0333 -118.3333 78° East 202 232 3,800 -1,163 Descending Southern California TRACON
Sun 01:30:52 PM 34.0333 -118.2500 90° East 197 227 3,000 -400 Descending Southern California TRACON
Sun 01:31:46 PM 34.0500 -118.2000 68° East 200 230 3,000 -53 Level Southern California TRACON
Sun 01:32:46 PM 34.0500 -118.1333 90° East 212 244 2,900 -190 Descending Southern California TRACON
Sun 01:33:52 PM 34.0000 -118.1167 165° South 192 221 2,600 -200 Descending Southern California TRACON
Sun 01:34:46 PM 33.9833 -118.1500 239° Southwest 188 216 2,500 -52 Descending Southern California TRACON
Sun 01:35:47 PM 33.9667 -118.2167 253° West 180 207 2,500  Level Southern California TRACON
Sun 01:36:17 PM 33.9675 -118.2389 273° West 182 209 2,500 -326 Level Los Angeles Center
Sun 01:37:19 PM 33.9619 -118.2906 263° West 169 194 2,000 -581 Descending Los Angeles Center
Sun 01:38:21 PM 33.9581 -118.3367 264° West 153 176 1,300 -726 Descending Los Angeles Center
Sun 01:39:23 PM 33.9533 -118.3828 263° West 144 166 500 -532 Descending Los Angeles Center
Sun 01:40:25 PM 33.9475 -118.4386 263° West 144 166 200 -290 Descending Los Angeles Center

Login

Don't have an account? Register now (free) for customized features, flight alerts, and more!